sensor_id;sensor_type;location;lat;lon;timestamp;pressure;altitude;pressure_sealevel;temperature;humidity
21594;BME280;10959;51.328;7.322;2024-02-21T00:00:20;99659.25;;;9.13;72.13
21594;BME280;10959;51.328;7.322;2024-02-21T00:02:46;99658.66;;;9.11;71.92
21594;BME280;10959;51.328;7.322;2024-02-21T00:05:13;99655.94;;;9.11;71.79
21594;BME280;10959;51.328;7.322;2024-02-21T00:07:39;99653.25;;;9.11;72.18
21594;BME280;10959;51.328;7.322;2024-02-21T00:10:08;99659.47;;;9.12;72.06
21594;BME280;10959;51.328;7.322;2024-02-21T00:12:34;99651.16;;;9.13;72.24
21594;BME280;10959;51.328;7.322;2024-02-21T00:15:01;99639.31;;;9.14;72.32
21594;BME280;10959;51.328;7.322;2024-02-21T00:17:28;99638.28;;;9.15;72.09
21594;BME280;10959;51.328;7.322;2024-02-21T00:19:54;99637.91;;;9.12;72.06
21594;BME280;10959;51.328;7.322;2024-02-21T00:22:20;99630.00;;;9.10;72.04
21594;BME280;10959;51.328;7.322;2024-02-21T00:24:47;99636.22;;;9.11;71.90
21594;BME280;10959;51.328;7.322;2024-02-21T00:27:15;99625.44;;;9.11;72.06
21594;BME280;10959;51.328;7.322;2024-02-21T00:29:41;99616.75;;;9.09;72.47
21594;BME280;10959;51.328;7.322;2024-02-21T00:32:08;99623.44;;;9.06;72.43
21594;BME280;10959;51.328;7.322;2024-02-21T00:34:34;99624.84;;;9.09;72.50
21594;BME280;10959;51.328;7.322;2024-02-21T00:37:01;99609.09;;;9.06;72.51
21594;BME280;10959;51.328;7.322;2024-02-21T00:39:27;99607.59;;;9.10;72.44
21594;BME280;10959;51.328;7.322;2024-02-21T00:41:54;99598.91;;;9.08;72.34
21594;BME280;10959;51.328;7.322;2024-02-21T00:44:21;99598.00;;;9.14;72.41
21594;BME280;10959;51.328;7.322;2024-02-21T00:46:48;99595.31;;;9.14;72.31
21594;BME280;10959;51.328;7.322;2024-02-21T00:49:14;99596.81;;;9.10;72.50
21594;BME280;10959;51.328;7.322;2024-02-21T00:51:41;99596.34;;;9.13;72.69
21594;BME280;10959;51.328;7.322;2024-02-21T00:54:07;99584.75;;;9.12;72.45
21594;BME280;10959;51.328;7.322;2024-02-21T00:56:34;99580.78;;;9.15;72.45
21594;BME280;10959;51.328;7.322;2024-02-21T00:59:00;99585.13;;;9.16;72.36
21594;BME280;10959;51.328;7.322;2024-02-21T01:01:28;99578.09;;;9.15;72.60
21594;BME280;10959;51.328;7.322;2024-02-21T01:03:54;99571.88;;;9.14;72.44
21594;BME280;10959;51.328;7.322;2024-02-21T01:06:21;99569.38;;;9.13;72.20
21594;BME280;10959;51.328;7.322;2024-02-21T01:08:49;99574.78;;;9.13;72.46
21594;BME280;10959;51.328;7.322;2024-02-21T01:11:16;99570.44;;;9.12;72.22
21594;BME280;10959;51.328;7.322;2024-02-21T01:13:42;99572.69;;;9.15;72.31
21594;BME280;10959;51.328;7.322;2024-02-21T01:16:09;99572.50;;;9.10;72.51
21594;BME280;10959;51.328;7.322;2024-02-21T01:18:38;99562.34;;;9.12;72.28
21594;BME280;10959;51.328;7.322;2024-02-21T01:21:07;99560.47;;;9.12;72.34
21594;BME280;10959;51.328;7.322;2024-02-21T01:23:34;99558.38;;;9.14;72.35
21594;BME280;10959;51.328;7.322;2024-02-21T01:26:01;99550.03;;;9.16;72.39
21594;BME280;10959;51.328;7.322;2024-02-21T01:28:27;99550.88;;;9.16;72.54
21594;BME280;10959;51.328;7.322;2024-02-21T01:30:54;99546.53;;;9.15;72.58
21594;BME280;10959;51.328;7.322;2024-02-21T01:33:21;99547.34;;;9.16;72.56
21594;BME280;10959;51.328;7.322;2024-02-21T01:35:49;99531.16;;;9.16;72.58
21594;BME280;10959;51.328;7.322;2024-02-21T01:38:16;99528.00;;;9.19;72.42
21594;BME280;10959;51.328;7.322;2024-02-21T01:40:42;99514.50;;;9.19;72.12
21594;BME280;10959;51.328;7.322;2024-02-21T01:43:15;99506.88;;;9.16;72.11
21594;BME280;10959;51.328;7.322;2024-02-21T01:45:42;99507.03;;;9.21;72.29
21594;BME280;10959;51.328;7.322;2024-02-21T01:48:08;99510.63;;;9.15;71.94
21594;BME280;10959;51.328;7.322;2024-02-21T01:50:35;99497.59;;;9.12;72.56
21594;BME280;10959;51.328;7.322;2024-02-21T01:53:03;99498.19;;;9.14;72.19
21594;BME280;10959;51.328;7.322;2024-02-21T01:55:30;99502.53;;;9.15;72.36
21594;BME280;10959;51.328;7.322;2024-02-21T01:57:57;99491.38;;;9.11;72.52
21594;BME280;10959;51.328;7.322;2024-02-21T02:00:24;99487.38;;;9.14;72.51
21594;BME280;10959;51.328;7.322;2024-02-21T02:02:50;99490.09;;;9.14;72.64
21594;BME280;10959;51.328;7.322;2024-02-21T02:05:18;99483.41;;;9.16;72.58
21594;BME280;10959;51.328;7.322;2024-02-21T02:07:46;99483.66;;;9.15;72.47
21594;BME280;10959;51.328;7.322;2024-02-21T02:10:14;99494.19;;;9.16;72.59
21594;BME280;10959;51.328;7.322;2024-02-21T02:12:40;99496.69;;;9.18;72.16
21594;BME280;10959;51.328;7.322;2024-02-21T02:15:07;99486.47;;;9.20;72.21
21594;BME280;10959;51.328;7.322;2024-02-21T02:17:34;99487.19;;;9.15;72.28
21594;BME280;10959;51.328;7.322;2024-02-21T02:20:01;99490.31;;;9.12;72.28
21594;BME280;10959;51.328;7.322;2024-02-21T02:22:28;99483.88;;;9.13;72.51
21594;BME280;10959;51.328;7.322;2024-02-21T02:24:56;99471.00;;;9.15;72.37
21594;BME280;10959;51.328;7.322;2024-02-21T02:27:23;99470.16;;;9.15;72.32
21594;BME280;10959;51.328;7.322;2024-02-21T02:29:50;99464.75;;;9.15;72.24
21594;BME280;10959;51.328;7.322;2024-02-21T02:32:17;99449.03;;;9.12;72.62
21594;BME280;10959;51.328;7.322;2024-02-21T02:34:44;99453.50;;;9.18;72.60
21594;BME280;10959;51.328;7.322;2024-02-21T02:37:10;99452.22;;;9.20;72.45
21594;BME280;10959;51.328;7.322;2024-02-21T02:39:36;99453.88;;;9.21;72.63
21594;BME280;10959;51.328;7.322;2024-02-21T02:42:05;99447.88;;;9.19;72.59
21594;BME280;10959;51.328;7.322;2024-02-21T02:44:31;99445.19;;;9.19;72.53
21594;BME280;10959;51.328;7.322;2024-02-21T02:46:57;99438.75;;;9.20;72.15
21594;BME280;10959;51.328;7.322;2024-02-21T02:49:24;99431.47;;;9.21;72.23
21594;BME280;10959;51.328;7.322;2024-02-21T02:51:50;99426.91;;;9.21;72.18
21594;BME280;10959;51.328;7.322;2024-02-21T02:54:17;99426.06;;;9.21;72.28
21594;BME280;10959;51.328;7.322;2024-02-21T02:56:43;99429.00;;;9.19;72.30
21594;BME280;10959;51.328;7.322;2024-02-21T02:59:11;99420.06;;;9.19;72.28
21594;BME280;10959;51.328;7.322;2024-02-21T03:01:38;99418.44;;;9.18;72.08
21594;BME280;10959;51.328;7.322;2024-02-21T03:04:04;99414.09;;;9.17;72.34
21594;BME280;10959;51.328;7.322;2024-02-21T03:06:31;99419.47;;;9.17;72.14
21594;BME280;10959;51.328;7.322;2024-02-21T03:08:57;99403.75;;;9.14;72.58
21594;BME280;10959;51.328;7.322;2024-02-21T03:11:25;99401.50;;;9.11;72.70
21594;BME280;10959;51.328;7.322;2024-02-21T03:13:54;99409.00;;;9.09;72.33
21594;BME280;10959;51.328;7.322;2024-02-21T03:16:22;99411.72;;;9.09;72.67
21594;BME280;10959;51.328;7.322;2024-02-21T03:18:48;99403.63;;;9.09;72.84
21594;BME280;10959;51.328;7.322;2024-02-21T03:21:15;99395.53;;;9.09;72.44
21594;BME280;10959;51.328;7.322;2024-02-21T03:23:41;99396.34;;;9.09;72.67
21594;BME280;10959;51.328;7.322;2024-02-21T03:26:08;99388.94;;;9.05;72.55
21594;BME280;10959;51.328;7.322;2024-02-21T03:28:34;99391.03;;;9.03;72.62
21594;BME280;10959;51.328;7.322;2024-02-21T03:31:01;99378.97;;;9.05;72.53
21594;BME280;10959;51.328;7.322;2024-02-21T03:33:29;99377.56;;;9.03;72.51
21594;BME280;10959;51.328;7.322;2024-02-21T03:35:55;99370.50;;;9.02;72.80
21594;BME280;10959;51.328;7.322;2024-02-21T03:38:22;99367.22;;;9.00;72.72
21594;BME280;10959;51.328;7.322;2024-02-21T03:40:48;99362.66;;;9.00;72.73
21594;BME280;10959;51.328;7.322;2024-02-21T03:43:15;99361.59;;;9.01;72.71
21594;BME280;10959;51.328;7.322;2024-02-21T03:45:41;99356.81;;;9.03;72.72
21594;BME280;10959;51.328;7.322;2024-02-21T03:48:08;99351.16;;;9.05;72.72
21594;BME280;10959;51.328;7.322;2024-02-21T03:50:35;99353.13;;;8.98;72.50
21594;BME280;10959;51.328;7.322;2024-02-21T03:53:02;99359.97;;;9.00;72.72
21594;BME280;10959;51.328;7.322;2024-02-21T03:55:29;99359.72;;;9.02;72.33
21594;BME280;10959;51.328;7.322;2024-02-21T03:57:55;99347.25;;;9.01;72.20
21594;BME280;10959;51.328;7.322;2024-02-21T04:00:22;99344.56;;;9.01;72.50
21594;BME280;10959;51.328;7.322;2024-02-21T04:02:49;99347.88;;;9.03;72.52
21594;BME280;10959;51.328;7.322;2024-02-21T04:05:16;99361.38;;;9.03;72.67
21594;BME280;10959;51.328;7.322;2024-02-21T04:07:44;99363.81;;;9.04;72.37
21594;BME280;10959;51.328;7.322;2024-02-21T04:10:10;99361.94;;;9.05;72.07
21594;BME280;10959;51.328;7.322;2024-02-21T04:12:37;99354.31;;;9.02;72.26
21594;BME280;10959;51.328;7.322;2024-02-21T04:15:04;99369.84;;;9.06;72.45
21594;BME280;10959;51.328;7.322;2024-02-21T04:17:31;99376.94;;;9.01;72.27
21594;BME280;10959;51.328;7.322;2024-02-21T04:20:03;99389.91;;;8.92;72.37
21594;BME280;10959;51.328;7.322;2024-02-21T04:22:30;99377.63;;;8.96;72.56
21594;BME280;10959;51.328;7.322;2024-02-21T04:24:59;99382.34;;;9.01;72.37
21594;BME280;10959;51.328;7.322;2024-02-21T04:27:25;99390.59;;;9.06;72.49
21594;BME280;10959;51.328;7.322;2024-02-21T04:29:52;99379.78;;;9.06;72.34
21594;BME280;10959;51.328;7.322;2024-02-21T04:32:19;99382.25;;;9.07;72.32
21594;BME280;10959;51.328;7.322;2024-02-21T04:34:45;99379.78;;;9.06;72.07
21594;BME280;10959;51.328;7.322;2024-02-21T04:37:12;99376.94;;;9.01;72.21
21594;BME280;10959;51.328;7.322;2024-02-21T04:39:39;99378.13;;;9.05;72.48
21594;BME280;10959;51.328;7.322;2024-02-21T04:42:06;99386.22;;;9.05;72.41
21594;BME280;10959;51.328;7.322;2024-02-21T04:44:33;99380.38;;;9.08;72.41
21594;BME280;10959;51.328;7.322;2024-02-21T04:46:59;99384.72;;;9.09;72.41
21594;BME280;10959;51.328;7.322;2024-02-21T04:49:26;99379.94;;;9.11;72.38
21594;BME280;10959;51.328;7.322;2024-02-21T04:51:52;99378.06;;;9.11;72.21
21594;BME280;10959;51.328;7.322;2024-02-21T04:54:19;99380.50;;;9.13;71.98
21594;BME280;10959;51.328;7.322;2024-02-21T04:56:45;99389.66;;;9.12;72.01
21594;BME280;10959;51.328;7.322;2024-02-21T04:59:13;99388.00;;;9.11;72.06
21594;BME280;10959;51.328;7.322;2024-02-21T05:01:40;99377.47;;;9.09;71.73
21594;BME280;10959;51.328;7.322;2024-02-21T05:04:06;99385.31;;;9.11;72.04
21594;BME280;10959;51.328;7.322;2024-02-21T05:06:37;99378.28;;;9.10;72.00
21594;BME280;10959;51.328;7.322;2024-02-21T05:09:03;99376.19;;;9.12;72.09
21594;BME280;10959;51.328;7.322;2024-02-21T05:11:30;99372.06;;;9.09;71.77
21594;BME280;10959;51.328;7.322;2024-02-21T05:13:56;99375.34;;;9.11;72.02
21594;BME280;10959;51.328;7.322;2024-02-21T05:16:24;99375.56;;;9.10;71.75
21594;BME280;10959;51.328;7.322;2024-02-21T05:18:51;99378.44;;;9.15;71.59
21594;BME280;10959;51.328;7.322;2024-02-21T05:21:17;99372.19;;;9.14;71.69
21594;BME280;10959;51.328;7.322;2024-02-21T05:23:44;99370.31;;;9.15;71.67
21594;BME280;10959;51.328;7.322;2024-02-21T05:26:10;99367.63;;;9.15;71.72
21594;BME280;10959;51.328;7.322;2024-02-21T05:28:37;99360.56;;;9.14;71.31
21594;BME280;10959;51.328;7.322;2024-02-21T05:31:03;99351.91;;;9.12;71.46
21594;BME280;10959;51.328;7.322;2024-02-21T05:33:31;99355.06;;;9.09;71.69
21594;BME280;10959;51.328;7.322;2024-02-21T05:35:58;99352.34;;;9.09;71.51
21594;BME280;10959;51.328;7.322;2024-02-21T05:38:24;99352.34;;;9.09;71.40
21594;BME280;10959;51.328;7.322;2024-02-21T05:40:51;99359.38;;;9.10;71.71
21594;BME280;10959;51.328;7.322;2024-02-21T05:43:17;99346.97;;;9.09;71.38
21594;BME280;10959;51.328;7.322;2024-02-21T05:45:44;99350.69;;;9.08;71.48
21594;BME280;10959;51.328;7.322;2024-02-21T05:48:10;99349.03;;;9.07;71.45
21594;BME280;10959;51.328;7.322;2024-02-21T05:50:38;99342.03;;;9.06;71.14
21594;BME280;10959;51.328;7.322;2024-02-21T05:53:05;99335.88;;;8.99;71.40
21594;BME280;10959;51.328;7.322;2024-02-21T05:55:31;99346.13;;;9.08;70.90
21594;BME280;10959;51.328;7.322;2024-02-21T05:57:58;99345.31;;;9.08;71.46
21594;BME280;10959;51.328;7.322;2024-02-21T06:00:24;99339.91;;;9.08;71.38
21594;BME280;10959;51.328;7.322;2024-02-21T06:02:51;99332.28;;;9.05;70.93
21594;BME280;10959;51.328;7.322;2024-02-21T06:05:17;99329.81;;;9.03;71.20
21594;BME280;10959;51.328;7.322;2024-02-21T06:07:45;99320.91;;;9.03;71.24
21594;BME280;10959;51.328;7.322;2024-02-21T06:10:12;99332.16;;;9.00;71.13
21594;BME280;10959;51.328;7.322;2024-02-21T06:12:38;99324.28;;;8.98;71.09
21594;BME280;10959;51.328;7.322;2024-02-21T06:15:06;99325.94;;;8.99;71.23
21594;BME280;10959;51.328;7.322;2024-02-21T06:17:32;99319.72;;;8.99;70.79
21594;BME280;10959;51.328;7.322;2024-02-21T06:19:59;99317.59;;;9.01;71.32
21594;BME280;10959;51.328;7.322;2024-02-21T06:22:25;99308.47;;;9.02;70.70
21594;BME280;10959;51.328;7.322;2024-02-21T06:24:53;99311.16;;;9.02;70.80
21594;BME280;10959;51.328;7.322;2024-02-21T06:27:19;99296.38;;;9.04;70.92
21594;BME280;10959;51.328;7.322;2024-02-21T06:29:46;99296.84;;;9.01;70.60
21594;BME280;10959;51.328;7.322;2024-02-21T06:32:12;99286.31;;;9.00;70.96
21594;BME280;10959;51.328;7.322;2024-02-21T06:34:39;99274.69;;;8.99;70.96
21594;BME280;10959;51.328;7.322;2024-02-21T06:37:05;99279.38;;;9.04;70.73
21594;BME280;10959;51.328;7.322;2024-02-21T06:39:32;99272.34;;;9.03;70.75
21594;BME280;10959;51.328;7.322;2024-02-21T06:41:59;99269.66;;;9.03;70.38
21594;BME280;10959;51.328;7.322;2024-02-21T06:44:26;99269.66;;;9.03;70.49
21594;BME280;10959;51.328;7.322;2024-02-21T06:46:53;99265.31;;;9.02;70.59
21594;BME280;10959;51.328;7.322;2024-02-21T06:49:20;99263.66;;;9.01;70.53
21594;BME280;10959;51.328;7.322;2024-02-21T06:51:46;99251.69;;;8.97;70.43
21594;BME280;10959;51.328;7.322;2024-02-21T06:54:13;99250.03;;;8.96;70.53
21594;BME280;10959;51.328;7.322;2024-02-21T06:56:40;99252.75;;;8.96;70.55
21594;BME280;10959;51.328;7.322;2024-02-21T06:59:08;99249.81;;;8.97;70.54
21594;BME280;10959;51.328;7.322;2024-02-21T07:01:34;99256.16;;;9.03;70.46
21594;BME280;10959;51.328;7.322;2024-02-21T07:04:01;99254.03;;;9.05;70.72
21594;BME280;10959;51.328;7.322;2024-02-21T07:06:27;99258.63;;;9.04;70.53
21594;BME280;10959;51.328;7.322;2024-02-21T07:08:53;99264.97;;;9.10;70.57
21594;BME280;10959;51.328;7.322;2024-02-21T07:11:20;99256.06;;;9.09;70.37
21594;BME280;10959;51.328;7.322;2024-02-21T07:13:46;99260.84;;;9.07;70.66
21594;BME280;10959;51.328;7.322;2024-02-21T07:16:14;99255.25;;;9.09;70.49
21594;BME280;10959;51.328;7.322;2024-02-21T07:18:40;99258.75;;;9.09;70.66
21594;BME280;10959;51.328;7.322;2024-02-21T07:21:07;99263.69;;;9.12;70.85
21594;BME280;10959;51.328;7.322;2024-02-21T07:23:33;99253.94;;;9.11;70.86
21594;BME280;10959;51.328;7.322;2024-02-21T07:26:00;99256.28;;;9.08;70.98
21594;BME280;10959;51.328;7.322;2024-02-21T07:28:26;99250.88;;;9.08;70.68
21594;BME280;10959;51.328;7.322;2024-02-21T07:30:53;99258.53;;;9.11;70.77
21594;BME280;10959;51.328;7.322;2024-02-21T07:33:21;99252.44;;;9.15;70.86
21594;BME280;10959;51.328;7.322;2024-02-21T07:35:47;99244.09;;;9.17;70.86
21594;BME280;10959;51.328;7.322;2024-02-21T07:38:13;99243.28;;;9.16;70.58
21594;BME280;10959;51.328;7.322;2024-02-21T07:40:40;99234.97;;;9.18;70.53
21594;BME280;10959;51.328;7.322;2024-02-21T07:43:06;99233.66;;;9.20;70.39
21594;BME280;10959;51.328;7.322;2024-02-21T07:45:33;99225.31;;;9.22;70.44
21594;BME280;10959;51.328;7.322;2024-02-21T07:47:59;99222.63;;;9.22;70.05
21594;BME280;10959;51.328;7.322;2024-02-21T07:50:27;99231.34;;;9.24;70.17
21594;BME280;10959;51.328;7.322;2024-02-21T07:52:53;99222.06;;;9.20;69.89
21594;BME280;10959;51.328;7.322;2024-02-21T07:55:20;99226.41;;;9.21;70.06
21594;BME280;10959;51.328;7.322;2024-02-21T07:57:46;99224.84;;;9.25;69.86
21594;BME280;10959;51.328;7.322;2024-02-21T08:00:13;99213.59;;;9.28;69.74
21594;BME280;10959;51.328;7.322;2024-02-21T08:02:45;99210.09;;;9.27;69.53
21594;BME280;10959;51.328;7.322;2024-02-21T08:05:11;99210.69;;;9.29;69.69
21594;BME280;10959;51.328;7.322;2024-02-21T08:07:39;99203.41;;;9.30;69.92
21594;BME280;10959;51.328;7.322;2024-02-21T08:10:07;99199.06;;;9.29;69.71
21594;BME280;10959;51.328;7.322;2024-02-21T08:12:33;99192.16;;;9.33;69.43
21594;BME280;10959;51.328;7.322;2024-02-21T08:15:00;99184.28;;;9.31;69.59
21594;BME280;10959;51.328;7.322;2024-02-21T08:17:26;99189.66;;;9.31;69.92
21594;BME280;10959;51.328;7.322;2024-02-21T08:19:53;99177.84;;;9.32;70.05
21594;BME280;10959;51.328;7.322;2024-02-21T08:22:19;99180.75;;;9.31;69.66
21594;BME280;10959;51.328;7.322;2024-02-21T08:24:47;99171.84;;;9.30;70.09
21594;BME280;10959;51.328;7.322;2024-02-21T08:27:13;99177.59;;;9.34;70.03
21594;BME280;10959;51.328;7.322;2024-02-21T08:29:40;99172.19;;;9.34;70.30
21594;BME280;10959;51.328;7.322;2024-02-21T08:32:06;99188.38;;;9.34;70.05
21594;BME280;10959;51.328;7.322;2024-02-21T08:34:33;99171.59;;;9.32;70.16
21594;BME280;10959;51.328;7.322;2024-02-21T08:37:00;99160.72;;;9.27;70.57
21594;BME280;10959;51.328;7.322;2024-02-21T08:39:26;99161.53;;;9.27;70.88
21594;BME280;10959;51.328;7.322;2024-02-21T08:41:55;99151.53;;;9.28;70.85
21594;BME280;10959;51.328;7.322;2024-02-21T08:44:22;99149.78;;;9.22;70.78
21594;BME280;10959;51.328;7.322;2024-02-21T08:46:48;99146.59;;;9.25;71.03
21594;BME280;10959;51.328;7.322;2024-02-21T08:49:15;99151.53;;;9.28;71.21
21594;BME280;10959;51.328;7.322;2024-02-21T08:51:41;99141.00;;;9.26;71.25
21594;BME280;10959;51.328;7.322;2024-02-21T08:54:08;99141.22;;;9.25;71.16
21594;BME280;10959;51.328;7.322;2024-02-21T08:56:34;99142.88;;;9.26;70.91
21594;BME280;10959;51.328;7.322;2024-02-21T08:59:02;99135.81;;;9.25;70.94
21594;BME280;10959;51.328;7.322;2024-02-21T09:01:29;99141.81;;;9.27;71.21
21594;BME280;10959;51.328;7.322;2024-02-21T09:03:55;99143.22;;;9.29;71.20
21594;BME280;10959;51.328;7.322;2024-02-21T09:06:22;99143.69;;;9.26;71.06
21594;BME280;10959;51.328;7.322;2024-02-21T09:08:49;99138.66;;;9.30;71.30
21594;BME280;10959;51.328;7.322;2024-02-21T09:11:15;99126.19;;;9.29;70.94
21594;BME280;10959;51.328;7.322;2024-02-21T09:13:42;99117.53;;;9.27;71.03
21594;BME280;10959;51.328;7.322;2024-02-21T09:16:09;99124.06;;;9.31;71.17
21594;BME280;10959;51.328;7.322;2024-02-21T09:18:36;99107.88;;;9.31;70.78
21594;BME280;10959;51.328;7.322;2024-02-21T09:21:03;99109.44;;;9.27;70.76
21594;BME280;10959;51.328;7.322;2024-02-21T09:23:30;99112.25;;;9.20;70.84
21594;BME280;10959;51.328;7.322;2024-02-21T09:25:57;99101.81;;;9.24;71.10
21594;BME280;10959;51.328;7.322;2024-02-21T09:28:25;99101.91;;;9.29;70.96
21594;BME280;10959;51.328;7.322;2024-02-21T09:30:52;99100.25;;;9.28;70.86
21594;BME280;10959;51.328;7.322;2024-02-21T09:33:20;99093.00;;;9.28;70.96
21594;BME280;10959;51.328;7.322;2024-02-21T09:35:46;99098.16;;;9.30;71.05
21594;BME280;10959;51.328;7.322;2024-02-21T09:38:13;99096.41;;;9.24;70.85
21594;BME280;10959;51.328;7.322;2024-02-21T09:40:40;99088.31;;;9.24;70.69
21594;BME280;10959;51.328;7.322;2024-02-21T09:43:07;99089.94;;;9.25;70.75
21594;BME280;10959;51.328;7.322;2024-02-21T09:45:34;99080.69;;;9.21;70.94
21594;BME280;10959;51.328;7.322;2024-02-21T09:48:17;99084.34;;;9.15;70.76
21594;BME280;10959;51.328;7.322;2024-02-21T09:50:49;99068.81;;;9.22;70.45
21594;BME280;10959;51.328;7.322;2024-02-21T09:53:16;99071.22;;;9.18;70.21
21594;BME280;10959;51.328;7.322;2024-02-21T09:55:45;99072.34;;;9.22;70.54
21594;BME280;10959;51.328;7.322;2024-02-21T09:58:12;99071.66;;;9.27;70.65
21594;BME280;10959;51.328;7.322;2024-02-21T10:00:39;99074.34;;;9.27;70.49
21594;BME280;10959;51.328;7.322;2024-02-21T10:03:05;99081.28;;;9.23;70.26
21594;BME280;10959;51.328;7.322;2024-02-21T10:05:34;99089.94;;;9.25;70.41
21594;BME280;10959;51.328;7.322;2024-02-21T10:08:03;99088.91;;;9.26;70.12
21594;BME280;10959;51.328;7.322;2024-02-21T10:10:40;99081.84;;;9.25;70.47
21594;BME280;10959;51.328;7.322;2024-02-21T10:13:06;99091.22;;;9.34;70.29
21594;BME280;10959;51.328;7.322;2024-02-21T10:15:33;99082.56;;;9.32;70.03
21594;BME280;10959;51.328;7.322;2024-02-21T10:18:00;99081.97;;;9.30;69.95
21594;BME280;10959;51.328;7.322;2024-02-21T10:20:28;99082.19;;;9.28;69.92
21594;BME280;10959;51.328;7.322;2024-02-21T10:23:00;99081.16;;;9.29;69.74
21594;BME280;10959;51.328;7.322;2024-02-21T10:25:29;99071.75;;;9.32;69.66
21594;BME280;10959;51.328;7.322;2024-02-21T10:27:56;99070.09;;;9.31;69.58
21594;BME280;10959;51.328;7.322;2024-02-21T10:30:22;99062.63;;;9.33;69.56
21594;BME280;10959;51.328;7.322;2024-02-21T10:32:50;99057.88;;;9.40;69.74
21594;BME280;10959;51.328;7.322;2024-02-21T10:35:25;99056.22;;;9.51;69.09
21594;BME280;10959;51.328;7.322;2024-02-21T10:37:53;99052.19;;;9.65;68.98
21594;BME280;10959;51.328;7.322;2024-02-21T10:40:21;99053.34;;;9.69;68.78
21594;BME280;10959;51.328;7.322;2024-02-21T10:42:52;99045.59;;;9.72;69.05
21594;BME280;10959;51.328;7.322;2024-02-21T10:45:23;99050.03;;;9.78;68.96
21594;BME280;10959;51.328;7.322;2024-02-21T10:47:56;99041.44;;;9.81;68.78
21594;BME280;10959;51.328;7.322;2024-02-21T10:50:31;99048.81;;;9.86;68.75
21594;BME280;10959;51.328;7.322;2024-02-21T10:53:07;99050.47;;;9.87;68.32
21594;BME280;10959;51.328;7.322;2024-02-21T10:55:38;99040.00;;;9.90;68.26
21594;BME280;10959;51.328;7.322;2024-02-21T10:58:09;99034.59;;;9.90;68.03
21594;BME280;10959;51.328;7.322;2024-02-21T11:00:37;99036.81;;;9.93;67.69
21594;BME280;10959;51.328;7.322;2024-02-21T11:03:04;99013.97;;;10.01;67.29
21594;BME280;10959;51.328;7.322;2024-02-21T11:05:32;99012.66;;;10.04;67.36
21594;BME280;10959;51.328;7.322;2024-02-21T11:07:59;99008.97;;;10.10;67.30
21594;BME280;10959;51.328;7.322;2024-02-21T11:10:26;98999.38;;;10.14;66.92
21594;BME280;10959;51.328;7.322;2024-02-21T11:12:53;98995.75;;;10.25;66.72
21594;BME280;10959;51.328;7.322;2024-02-21T11:15:26;98980.13;;;10.27;66.62
21594;BME280;10959;51.328;7.322;2024-02-21T11:17:56;98976.94;;;10.30;66.33
21594;BME280;10959;51.328;7.322;2024-02-21T11:20:32;98965.63;;;10.33;66.44
21594;BME280;10959;51.328;7.322;2024-02-21T11:22:58;98953.41;;;10.47;66.40
21594;BME280;10959;51.328;7.322;2024-02-21T11:25:26;98938.41;;;10.56;65.47
21594;BME280;10959;51.328;7.322;2024-02-21T11:27:59;98926.44;;;10.52;65.52
21594;BME280;10959;51.328;7.322;2024-02-21T11:30:29;98918.16;;;10.59;64.39
21594;BME280;10959;51.328;7.322;2024-02-21T11:33:00;98922.88;;;10.68;65.00
21594;BME280;10959;51.328;7.322;2024-02-21T11:35:31;98902.63;;;10.71;64.63
21594;BME280;10959;51.328;7.322;2024-02-21T11:38:07;98886.25;;;10.61;64.43
21594;BME280;10959;51.328;7.322;2024-02-21T11:40:34;98885.59;;;10.70;63.91
21594;BME280;10959;51.328;7.322;2024-02-21T11:43:00;98875.03;;;10.69;63.69
21594;BME280;10959;51.328;7.322;2024-02-21T11:45:28;98868.84;;;10.73;63.70
21594;BME280;10959;51.328;7.322;2024-02-21T11:47:57;98859.19;;;10.77;63.61
21594;BME280;10959;51.328;7.322;2024-02-21T11:50:25;98847.81;;;10.75;63.52
21594;BME280;10959;51.328;7.322;2024-02-21T11:52:54;98855.41;;;10.78;62.56
21594;BME280;10959;51.328;7.322;2024-02-21T11:55:21;98842.69;;;10.79;63.13
21594;BME280;10959;51.328;7.322;2024-02-21T11:57:48;98837.84;;;10.81;62.70
21594;BME280;10959;51.328;7.322;2024-02-21T12:00:16;98832.13;;;10.77;62.67
21594;BME280;10959;51.328;7.322;2024-02-21T12:02:44;98817.22;;;10.75;62.81
21594;BME280;10959;51.328;7.322;2024-02-21T12:05:11;98814.56;;;10.80;61.69
21594;BME280;10959;51.328;7.322;2024-02-21T12:07:38;98804.56;;;10.80;61.84
21594;BME280;10959;51.328;7.322;2024-02-21T12:10:07;98806.72;;;10.78;61.21
21594;BME280;10959;51.328;7.322;2024-02-21T12:12:35;98798.47;;;10.68;61.72
21594;BME280;10959;51.328;7.322;2024-02-21T12:15:03;98788.81;;;10.72;62.17
21594;BME280;10959;51.328;7.322;2024-02-21T12:17:30;98765.34;;;10.78;62.31
21594;BME280;10959;51.328;7.322;2024-02-21T12:19:58;98768.06;;;10.83;62.02
21594;BME280;10959;51.328;7.322;2024-02-21T12:22:25;98754.56;;;10.83;62.16
21594;BME280;10959;51.328;7.322;2024-02-21T12:24:51;98743.53;;;10.89;61.97
21594;BME280;10959;51.328;7.322;2024-02-21T12:27:18;98744.44;;;10.73;61.42
21594;BME280;10959;51.328;7.322;2024-02-21T12:29:44;98723.22;;;10.60;61.01
21594;BME280;10959;51.328;7.322;2024-02-21T12:32:11;98731.47;;;10.48;61.31
21594;BME280;10959;51.328;7.322;2024-02-21T12:34:37;98706.88;;;10.50;62.30
21594;BME280;10959;51.328;7.322;2024-02-21T12:37:05;98688.50;;;10.52;62.26
21594;BME280;10959;51.328;7.322;2024-02-21T12:39:32;98686.41;;;10.54;62.04
21594;BME280;10959;51.328;7.322;2024-02-21T12:41:58;98668.53;;;10.53;61.64
21594;BME280;10959;51.328;7.322;2024-02-21T12:44:25;98659.34;;;10.54;62.56
21594;BME280;10959;51.328;7.322;2024-02-21T12:46:51;98656.69;;;10.59;61.94
21594;BME280;10959;51.328;7.322;2024-02-21T12:49:19;98637.22;;;10.57;62.10
21594;BME280;10959;51.328;7.322;2024-02-21T12:51:45;98625.81;;;10.55;61.58
21594;BME280;10959;51.328;7.322;2024-02-21T12:54:14;98629.69;;;10.64;60.77
21594;BME280;10959;51.328;7.322;2024-02-21T12:56:40;98632.84;;;10.51;61.23
21594;BME280;10959;51.328;7.322;2024-02-21T12:59:07;98627.63;;;10.44;61.44
21594;BME280;10959;51.328;7.322;2024-02-21T13:01:34;98613.31;;;10.49;61.34
21594;BME280;10959;51.328;7.322;2024-02-21T13:04:00;98599.00;;;10.48;60.74
21594;BME280;10959;51.328;7.322;2024-02-21T13:06:28;98586.09;;;10.56;61.25
21594;BME280;10959;51.328;7.322;2024-02-21T13:08:54;98567.72;;;10.58;61.68